Time;durP1;ratioP1;P1;durP2;ratioP2;P2;SDS_P1;SDS_P2;PMS_P1;PMS_P2;Temp;Humidity;BMP_temperature;BMP_pressure;BME280_temperature;BME280_humidity;BME280_pressure;Samples;Min_cycle;Max_cycle;Signal;HPM_P1;HPM_P2
2022/07/23 00:00:19;;;;;;;16.35;8.10;;;;;;;22.20;61.75;94984.28;5916244;24;20227;-89
2022/07/23 00:02:46;;;;;;;18.08;8.70;;;;;;;22.21;61.69;94999.13;5912868;24;20204;-89
2022/07/23 00:05:14;;;;;;;13.93;9.25;;;;;;;22.02;62.48;94985.00;5912888;24;20573;-89
2022/07/23 00:07:41;;;;;;;17.77;10.35;;;;;;;22.04;61.91;95004.84;5921845;24;20217;-88
2022/07/23 00:10:09;;;;;;;16.60;10.18;;;;;;;21.82;62.62;94977.22;5917184;24;20571;-88
2022/07/23 00:12:36;;;;;;;21.45;9.43;;;;;;;21.92;63.92;95006.28;5917260;24;20240;-88
2022/07/23 00:15:05;;;;;;;17.40;9.38;;;;;;;21.78;63.75;94986.81;5924404;24;20205;-89
2022/07/23 00:17:33;;;;;;;21.15;10.77;;;;;;;21.54;62.91;94955.03;5917999;24;20288;-89
2022/07/23 00:20:00;;;;;;;25.25;12.25;;;;;;;21.68;62.26;94978.97;5922362;24;20193;-90
2022/07/23 00:22:29;;;;;;;21.33;11.73;;;;;;;21.87;62.98;95009.78;5922140;24;20238;-89
2022/07/23 00:24:56;;;;;;;24.80;12.13;;;;;;;21.69;63.09;95012.31;5929485;24;20242;-88
2022/07/23 00:27:23;;;;;;;20.55;10.63;;;;;;;21.50;63.62;94988.38;5941193;24;20260;-89
2022/07/23 00:29:50;;;;;;;25.25;10.65;;;;;;;21.47;64.01;94981.78;5922844;24;20582;-90
2022/07/23 00:32:17;;;;;;;17.42;11.38;;;;;;;21.62;64.17;95011.81;5924385;24;20224;-87
2022/07/23 00:34:45;;;;;;;24.05;12.20;;;;;;;21.56;64.17;95011.06;5923966;24;20201;-86
2022/07/23 00:37:12;;;;;;;18.65;11.75;;;;;;;21.36;64.80;94990.88;5926553;24;20189;-89
2022/07/23 00:39:40;;;;;;;20.98;12.13;;;;;;;21.55;64.74;95011.38;5926316;24;20264;-88
2022/07/23 00:42:07;;;;;;;23.38;11.38;;;;;;;21.57;64.96;95011.88;5921028;24;20199;-88
2022/07/23 00:44:34;;;;;;;17.83;10.98;;;;;;;21.52;65.01;94999.50;5920773;24;20201;-88
2022/07/23 00:47:01;;;;;;;20.27;11.00;;;;;;;21.61;64.64;95008.41;5922889;24;20193;-89
2022/07/23 00:49:29;;;;;;;21.05;11.15;;;;;;;21.63;64.64;95005.47;5920885;24;20194;-88
2022/07/23 00:51:57;;;;;;;21.10;10.27;;;;;;;21.46;65.03;95003.25;5919925;24;20220;-87
2022/07/23 00:54:27;;;;;;;18.83;10.63;;;;;;;21.55;65.19;95011.38;5921471;24;20615;-88
2022/07/23 00:56:55;;;;;;;23.67;9.30;;;;;;;21.58;64.77;95013.47;5919248;24;20198;-88
2022/07/23 00:59:22;;;;;;;16.77;9.18;;;;;;;21.42;64.96;95002.19;5923780;24;20212;-88
2022/07/23 01:01:49;;;;;;;16.15;9.40;;;;;;;21.39;64.95;95000.09;5926053;24;20209;-89
2022/07/23 01:04:16;;;;;;;15.38;8.90;;;;;;;21.40;64.16;95014.91;5922185;24;20197;-88
2022/07/23 01:06:44;;;;;;;16.58;9.18;;;;;;;21.29;64.94;95008.94;5922729;24;20201;-88
2022/07/23 01:09:11;;;;;;;18.23;9.27;;;;;;;21.35;65.14;95009.69;5926547;24;20193;-89
2022/07/23 01:11:38;;;;;;;20.48;9.18;;;;;;;21.41;64.60;95013.88;5925625;24;20225;-88
2022/07/23 01:14:17;;;;;;;17.90;9.15;;;;;;;21.30;64.17;95007.03;5922634;24;20554;-89
2022/07/23 01:16:45;;;;;;;14.63;8.50;;;;;;;21.24;64.17;95008.94;5919842;24;20188;-89
2022/07/23 01:19:13;;;;;;;19.10;9.38;;;;;;;21.18;64.57;95002.09;5919416;24;20259;-89
2022/07/23 01:21:42;;;;;;;18.48;8.70;;;;;;;21.04;65.41;95000.34;5922155;24;20203;-88
2022/07/23 01:24:12;;;;;;;17.75;8.55;;;;;;;20.83;65.95;94963.47;5921391;24;20200;-88
2022/07/23 01:26:39;;;;;;;14.68;8.80;;;;;;;21.08;66.02;95006.69;5922496;24;20668;-89
2022/07/23 01:29:07;;;;;;;21.10;9.07;;;;;;;20.99;67.61;95005.66;5933855;24;20234;-90
2022/07/23 01:31:34;;;;;;;14.88;9.13;;;;;;;20.92;67.53;94990.88;5923878;24;20218;-88
2022/07/23 01:34:00;;;;;;;17.70;9.85;;;;;;;20.89;68.07;94982.72;5925673;24;20192;-89
2022/07/23 01:36:27;;;;;;;14.27;8.70;;;;;;;20.90;67.47;94976.38;5916142;24;20190;-88
2022/07/23 01:38:54;;;;;;;19.67;9.10;;;;;;;21.14;66.86;95001.09;5917653;24;20339;-88
2022/07/23 01:41:23;;;;;;;19.90;10.48;;;;;;;21.18;66.81;95006.63;5927686;24;20224;-87
2022/07/23 01:43:49;;;;;;;19.70;10.77;;;;;;;20.92;66.99;94956.53;5925634;24;20608;-89
2022/07/23 01:46:16;;;;;;;15.82;11.13;;;;;;;21.22;66.53;95005.00;5920440;24;20203;-88
2022/07/23 01:48:43;;;;;;;18.85;11.35;;;;;;;21.15;66.43;94980.75;5920995;24;20204;-89
2022/07/23 01:51:10;;;;;;;20.73;11.13;;;;;;;21.19;66.10;94992.31;5920108;24;20228;-89
2022/07/23 01:53:37;;;;;;;17.25;11.02;;;;;;;21.01;65.68;94977.88;5921388;24;20631;-89
2022/07/23 01:56:04;;;;;;;25.02;11.30;;;;;;;21.19;65.98;95000.25;5924231;24;20197;-89
2022/07/23 01:58:32;;;;;;;16.92;9.95;;;;;;;20.94;65.66;94972.13;5921386;24;20201;-90
2022/07/23 02:01:00;;;;;;;24.67;9.60;;;;;;;21.12;65.98;95003.22;5921627;24;20185;-89
2022/07/23 02:03:27;;;;;;;17.58;9.60;;;;;;;20.88;66.70;94971.38;5916621;24;20261;-88
2022/07/23 02:05:54;;;;;;;18.45;10.43;;;;;;;20.95;67.02;94985.06;5923184;24;20196;-89
2022/07/23 02:08:21;;;;;;;20.20;10.02;;;;;;;20.90;66.90;94968.44;5919845;24;20193;-91
2022/07/23 02:10:48;;;;;;;16.67;10.20;;;;;;;21.05;66.76;94994.78;5922767;24;20200;-88
2022/07/23 02:13:15;;;;;;;18.23;9.52;;;;;;;20.98;66.42;94988.22;5921531;24;20652;-89
2022/07/23 02:15:43;;;;;;;20.48;10.05;;;;;;;21.11;66.56;95004.28;5921815;24;20204;-88
2022/07/23 02:18:10;;;;;;;16.80;9.48;;;;;;;20.93;66.96;94989.81;5924450;24;20731;-89
2022/07/23 02:20:38;;;;;;;20.58;9.90;;;;;;;21.06;67.00;95006.16;5923947;24;20193;-88
2022/07/23 02:23:06;;;;;;;19.33;9.63;;;;;;;20.91;67.25;94996.44;5920556;24;21111;-89
2022/07/23 02:25:33;;;;;;;28.77;9.68;;;;;;;20.87;67.36;94998.84;5921819;24;20264;-89
2022/07/23 02:28:00;;;;;;;23.80;9.73;;;;;;;20.79;67.61;94982.78;5923325;24;20197;-88
2022/07/23 02:30:27;;;;;;;19.17;9.68;;;;;;;20.73;68.00;94983.88;5926308;24;20193;-88
2022/07/23 02:32:55;;;;;;;20.10;10.00;;;;;;;20.93;68.16;94999.59;5927788;24;20236;-88
2022/07/23 02:35:22;;;;;;;20.92;10.13;;;;;;;20.86;67.60;94983.28;5922673;24;20193;-89
2022/07/23 02:37:49;;;;;;;14.98;9.68;;;;;;;20.82;67.77;94979.59;5924139;24;20201;-89
2022/07/23 02:40:16;;;;;;;18.65;9.82;;;;;;;20.72;67.94;94974.38;5923703;24;20197;-87
2022/07/23 02:42:43;;;;;;;16.65;9.82;;;;;;;20.85;68.14;94994.91;5925970;24;20568;-88
2022/07/23 02:45:10;;;;;;;15.52;9.32;;;;;;;20.80;68.00;94984.38;5931689;24;20193;-88
2022/07/23 02:47:37;;;;;;;23.92;9.93;;;;;;;20.76;68.14;94976.19;5921826;24;20197;-89
2022/07/23 02:50:07;;;;;;;14.38;8.85;;;;;;;20.88;68.66;95011.00;5922425;24;20655;-89
2022/07/23 02:52:34;;;;;;;18.38;9.68;;;;;;;20.92;68.48;95008.63;5921613;24;20233;-89
2022/07/23 02:55:00;;;;;;;14.48;9.30;;;;;;;20.88;68.43;95012.84;5918432;24;20217;-89
2022/07/23 02:57:27;;;;;;;14.57;9.40;;;;;;;20.76;68.38;94993.88;5920812;24;20217;-87
2022/07/23 02:59:54;;;;;;;15.10;9.02;;;;;;;20.78;68.32;95002.31;5933806;24;20194;-88
2022/07/23 03:02:21;;;;;;;12.65;8.88;;;;;;;20.88;68.51;95020.78;5919965;24;20193;-88
2022/07/23 03:04:48;;;;;;;17.45;9.68;;;;;;;20.72;68.34;95006.84;5918047;24;20189;-88
2022/07/23 03:07:17;;;;;;;13.98;8.88;;;;;;;20.72;68.63;95012.13;5917004;24;20624;-89
2022/07/23 03:09:44;;;;;;;21.27;9.65;;;;;;;20.74;68.94;95031.16;5918888;24;20567;-88
2022/07/23 03:12:11;;;;;;;21.17;8.63;;;;;;;20.56;68.51;94999.28;5924715;24;20212;-88
2022/07/23 03:14:37;;;;;;;17.63;8.63;;;;;;;20.69;68.91;95036.44;5922402;24;20681;-88
2022/07/23 03:17:04;;;;;;;18.38;8.85;;;;;;;20.53;68.47;95007.75;5917557;24;20210;-89
2022/07/23 03:19:31;;;;;;;16.85;8.65;;;;;;;20.62;67.93;95014.03;5919156;24;20201;-89
2022/07/23 03:21:58;;;;;;;11.57;7.95;;;;;;;20.51;67.47;95007.22;5944392;24;20234;-90
2022/07/23 03:24:53;;;;;;;15.98;8.38;;;;;;;20.50;67.35;95024.91;5933729;24;20189;-90
2022/07/23 03:27:14;;;;;;;12.38;7.95;;;;;;;20.40;67.91;95021.53;5914713;24;20280;-90
2022/07/23 03:29:41;;;;;;;14.55;8.00;;;;;;;20.51;68.04;95054.78;5924585;24;20197;-90
2022/07/23 03:32:08;;;;;;;11.43;7.60;;;;;;;19.96;68.36;94969.38;5918474;24;20212;-89
2022/07/23 03:34:35;;;;;;;12.85;8.07;;;;;;;20.30;69.21;95036.34;5932563;24;20393;-90
2022/07/23 03:37:02;;;;;;;13.75;8.48;;;;;;;20.37;69.17;95044.00;5921449;24;20193;-89
2022/07/23 03:39:30;;;;;;;22.83;9.05;;;;;;;20.33;69.33;95042.94;5920934;24;20193;-89
2022/07/23 03:41:57;;;;;;;14.10;8.95;;;;;;;20.30;69.68;95043.47;5920610;24;20193;-90
2022/07/23 03:44:24;;;;;;;17.83;8.98;;;;;;;20.31;69.99;95055.63;5920656;24;20197;-89
2022/07/23 03:46:51;;;;;;;13.48;8.90;;;;;;;20.35;69.64;95057.44;5921691;24;20650;-89
2022/07/23 03:49:18;;;;;;;18.15;8.98;;;;;;;20.37;70.02;95050.03;5927551;24;20199;-88
2022/07/23 03:51:45;;;;;;;14.20;8.48;;;;;;;20.31;69.94;95032.66;5917550;24;20217;-91
2022/07/23 03:54:12;;;;;;;16.02;8.65;;;;;;;20.42;69.27;95036.06;5922573;24;20312;-89
2022/07/23 03:56:40;;;;;;;13.85;8.60;;;;;;;20.45;69.47;95042.63;5921922;24;20210;-90
2022/07/23 03:59:07;;;;;;;18.50;8.75;;;;;;;20.61;68.82;95054.72;5926742;24;20209;-89
2022/07/23 04:01:34;;;;;;;14.60;9.27;;;;;;;20.62;67.61;95051.03;5923330;24;20208;-89
2022/07/23 04:04:00;;;;;;;14.18;8.90;;;;;;;20.60;68.15;95056.59;5920117;24;20186;-89
2022/07/23 04:06:28;;;;;;;13.10;9.05;;;;;;;20.53;68.70;95042.06;5924226;24;20261;-89
2022/07/23 04:08:55;;;;;;;15.38;8.63;;;;;;;20.52;68.54;95030.72;5921140;24;20196;-90
2022/07/23 04:11:22;;;;;;;20.67;9.52;;;;;;;20.67;68.78;95054.44;5928986;24;20715;-89
2022/07/23 04:13:50;;;;;;;17.10;10.65;;;;;;;20.66;68.30;95042.31;5927297;24;20196;-88
2022/07/23 04:16:17;;;;;;;17.25;9.95;;;;;;;20.59;67.99;95027.78;5933336;24;20185;-89
2022/07/23 04:18:45;;;;;;;14.20;9.02;;;;;;;20.59;68.12;95025.16;5895249;24;20575;-90
2022/07/23 04:21:12;;;;;;;15.50;9.32;;;;;;;20.81;68.27;95054.63;5916239;24;20189;-89
2022/07/23 04:23:39;;;;;;;18.73;9.70;;;;;;;20.56;68.37;95021.19;5925262;24;20201;-90
2022/07/23 04:26:06;;;;;;;19.90;9.43;;;;;;;20.76;68.36;95052.81;5916689;24;21011;-89
2022/07/23 04:28:33;;;;;;;18.55;9.30;;;;;;;20.62;68.74;95033.31;5919678;24;20691;-89
2022/07/23 04:31:01;;;;;;;13.70;8.70;;;;;;;20.84;68.30;95064.66;5918168;24;20201;-90
2022/07/23 04:33:28;;;;;;;18.55;9.38;;;;;;;20.85;68.05;95061.75;5923254;24;20217;-89
2022/07/23 04:35:55;;;;;;;16.15;9.52;;;;;;;20.72;67.84;95032.50;5934912;24;20279;-90
2022/07/23 04:38:22;;;;;;;18.95;8.50;;;;;;;20.78;67.19;95049.88;5892903;24;20189;-90
2022/07/23 04:40:48;;;;;;;13.52;8.45;;;;;;;20.83;67.04;95065.75;5910232;24;20205;-89
2022/07/23 04:43:15;;;;;;;14.80;8.68;;;;;;;20.71;67.60;95063.41;5924528;24;20216;-89
2022/07/23 04:45:42;;;;;;;12.93;8.70;;;;;;;20.42;68.52;95040.53;5926964;24;20193;-89
2022/07/23 04:48:10;;;;;;;14.57;9.52;;;;;;;20.38;69.00;95042.91;5922384;24;20196;-90
2022/07/23 04:50:37;;;;;;;15.00;8.90;;;;;;;20.53;69.52;95058.72;5922173;24;20218;-90
2022/07/23 04:53:04;;;;;;;17.35;9.57;;;;;;;20.44;69.73;95041.84;5919749;24;20220;-89
2022/07/23 04:55:31;;;;;;;16.95;9.48;;;;;;;20.64;69.20;95062.91;5903010;24;20297;-90
2022/07/23 04:57:58;;;;;;;16.88;9.27;;;;;;;20.66;69.20;95055.50;5912251;24;20204;-90
2022/07/23 05:00:25;;;;;;;16.02;9.27;;;;;;;20.92;68.51;95074.69;5909973;24;20220;-89
2022/07/23 05:02:52;;;;;;;23.05;10.30;;;;;;;20.87;68.58;95067.56;5906585;24;20215;-89
2022/07/23 05:05:20;;;;;;;16.17;9.27;;;;;;;20.79;68.29;95043.56;5911159;24;20571;-88
2022/07/23 05:07:47;;;;;;;17.02;9.23;;;;;;;20.97;68.18;95073.84;5910759;24;20197;-89
2022/07/23 05:10:14;;;;;;;16.10;9.60;;;;;;;21.00;68.22;95062.75;5898301;24;20198;-89
2022/07/23 05:12:41;;;;;;;16.38;9.45;;;;;;;21.11;68.12;95072.22;5898693;24;20226;-89
2022/07/23 05:15:09;;;;;;;17.38;10.25;;;;;;;21.13;68.09;95056.88;5907853;24;20193;-89
2022/07/23 05:17:36;;;;;;;22.80;9.63;;;;;;;21.32;66.98;95071.84;5907954;24;20285;-89
2022/07/23 05:20:03;;;;;;;23.15;9.68;;;;;;;21.30;66.21;95057.28;5902016;24;20198;-89
2022/07/23 05:22:31;;;;;;;19.85;9.25;;;;;;;21.22;65.90;95050.75;5900417;24;20268;-89
2022/07/23 05:24:58;;;;;;;16.88;9.60;;;;;;;21.47;66.50;95078.91;5914557;24;20684;-89
2022/07/23 05:27:25;;;;;;;16.90;9.20;;;;;;;21.56;66.59;95074.56;5903436;24;20202;-89
2022/07/23 05:29:52;;;;;;;23.08;10.27;;;;;;;21.28;66.29;95028.50;5906637;24;20574;-89
2022/07/23 05:32:19;;;;;;;23.00;10.20;;;;;;;21.62;65.53;95059.44;5915490;24;20214;-90
2022/07/23 05:34:46;;;;;;;16.88;10.23;;;;;;;21.79;65.22;95073.88;5910847;24;20615;-89
2022/07/23 05:37:13;;;;;;;20.50;9.70;;;;;;;21.65;65.00;95045.66;5898903;24;20197;-90
2022/07/23 05:39:41;;;;;;;21.35;10.02;;;;;;;21.71;64.74;95065.72;5898827;24;20198;-89
2022/07/23 05:42:08;;;;;;;11.68;9.00;;;;;;;21.88;64.68;95082.03;5915761;24;20192;-89
2022/07/23 05:44:35;;;;;;;15.00;10.20;;;;;;;21.92;64.46;95080.41;5907857;24;20198;-90
2022/07/23 05:47:02;;;;;;;16.13;9.95;;;;;;;21.79;63.51;95039.47;5901557;24;20201;-90
2022/07/23 05:49:29;;;;;;;17.63;9.98;;;;;;;22.05;63.55;95079.75;5895337;24;20204;-89
2022/07/23 05:51:55;;;;;;;21.77;9.43;;;;;;;22.03;63.67;95063.38;5899696;24;20214;-90
2022/07/23 05:54:22;;;;;;;15.82;9.77;;;;;;;22.07;61.97;95050.38;5911820;24;20228;-89
2022/07/23 05:56:52;;;;;;;19.08;9.70;;;;;;;22.21;61.69;95069.81;5898722;24;20197;-89
2022/07/23 05:59:19;;;;;;;19.75;10.13;;;;;;;22.30;62.19;95073.44;5902841;24;20193;-90
2022/07/23 06:01:46;;;;;;;20.75;10.15;;;;;;;22.15;62.12;95047.09;5896550;24;20189;-89
2022/07/23 06:04:13;;;;;;;18.08;9.20;;;;;;;22.41;61.97;95078.34;5896468;24;20200;-89
2022/07/23 06:06:40;;;;;;;18.95;9.85;;;;;;;22.32;61.13;95048.25;5895415;24;20583;-89
2022/07/23 06:09:07;;;;;;;16.17;9.38;;;;;;;22.40;60.96;95054.78;5901366;24;20193;-89
2022/07/23 06:11:34;;;;;;;17.85;9.65;;;;;;;22.43;60.82;95048.91;5905827;24;20656;-88
2022/07/23 06:14:02;;;;;;;21.83;9.65;;;;;;;22.39;60.53;95045.28;5907442;24;20221;-90
2022/07/23 06:16:30;;;;;;;17.77;9.00;;;;;;;22.60;60.39;95054.56;5901647;24;20200;-90
2022/07/23 06:18:58;;;;;;;16.08;9.05;;;;;;;22.78;59.39;95063.66;5898132;24;20193;-89
2022/07/23 06:21:24;;;;;;;19.45;8.88;;;;;;;22.77;58.93;95064.75;5896567;24;20407;-90
2022/07/23 06:23:51;;;;;;;17.70;9.30;;;;;;;22.86;58.09;95060.38;5897977;24;20223;-90
2022/07/23 06:26:18;;;;;;;17.95;9.30;;;;;;;22.84;57.25;95047.41;5899621;24;20592;-89
2022/07/23 06:28:45;;;;;;;16.30;9.18;;;;;;;22.87;57.86;95046.84;5893307;24;20198;-88
2022/07/23 06:31:13;;;;;;;14.45;9.35;;;;;;;22.90;58.26;95038.31;5893809;24;20593;-89
2022/07/23 06:33:40;;;;;;;15.95;9.43;;;;;;;23.01;57.28;95049.56;5897519;24;20229;-89
2022/07/23 06:36:07;;;;;;;18.52;9.20;;;;;;;23.15;57.01;95064.50;5897462;24;20656;-89
2022/07/23 06:38:34;;;;;;;18.92;9.68;;;;;;;23.20;56.83;95070.81;5896870;24;20197;-90
2022/07/23 06:43:43;;;;;;;17.48;9.18;;;;;;;23.27;56.12;95053.44;5896449;24;20198;-93
2022/07/23 06:46:10;;;;;;;20.30;9.35;;;;;;;23.24;55.63;95034.66;5904099;24;20648;-93
2022/07/23 06:48:39;;;;;;;16.33;10.05;;;;;;;23.40;55.45;95044.03;5913900;24;20208;-91
2022/07/23 06:51:06;;;;;;;20.13;9.52;;;;;;;23.50;55.40;95055.25;5924404;24;20296;-92
2022/07/23 06:53:33;;;;;;;17.98;9.60;;;;;;;23.54;54.78;95040.34;5893264;24;20304;-91
2022/07/23 06:56:00;;;;;;;15.38;9.80;;;;;;;23.69;54.79;95052.59;5928687;24;20226;-92
2022/07/23 06:58:27;;;;;;;18.30;10.05;;;;;;;23.76;54.85;95030.97;5912345;24;20189;-92
2022/07/23 07:00:56;;;;;;;20.05;9.75;;;;;;;23.73;54.62;95030.47;5914096;24;20225;-93
2022/07/23 07:03:23;;;;;;;23.33;10.23;;;;;;;23.91;54.67;95039.47;5912102;24;20193;-93
2022/07/23 07:05:53;;;;;;;21.33;9.95;;;;;;;24.01;54.77;95038.53;5921766;24;20189;-92
2022/07/23 07:08:20;;;;;;;17.88;11.00;;;;;;;23.95;54.97;95016.59;5917248;24;20215;-92
2022/07/23 07:10:47;;;;;;;21.27;10.63;;;;;;;24.17;54.65;95045.16;5917560;24;20197;-93
2022/07/23 07:13:15;;;;;;;18.60;11.13;;;;;;;24.27;54.23;95034.38;5917348;24;20209;-93
2022/07/23 07:15:43;;;;;;;15.15;10.07;;;;;;;24.46;53.86;95053.66;5917148;24;20268;-93
2022/07/23 07:18:10;;;;;;;20.75;10.13;;;;;;;24.53;54.14;95056.69;5921573;24;20189;-92
2022/07/23 07:20:36;;;;;;;13.95;10.38;;;;;;;24.41;53.82;95019.22;5909870;24;20201;-93
2022/07/23 07:23:05;;;;;;;21.38;11.00;;;;;;;24.49;52.91;95009.75;5918784;24;21386;-93
2022/07/23 07:25:32;;;;;;;22.70;9.98;;;;;;;24.63;51.90;95010.53;5924618;24;20193;-93
2022/07/23 07:27:59;;;;;;;17.90;9.93;;;;;;;24.69;51.80;94996.03;5918963;24;20193;-92
2022/07/23 07:30:26;;;;;;;16.60;10.35;;;;;;;24.91;51.69;95025.38;5918813;24;20574;-93
2022/07/23 07:32:53;;;;;;;21.15;9.90;;;;;;;24.97;51.87;95028.72;5918991;24;20276;-92
2022/07/23 07:35:20;;;;;;;19.48;10.65;;;;;;;25.07;51.78;95024.00;5918514;24;20272;-92
2022/07/23 07:37:47;;;;;;;23.17;9.90;;;;;;;25.25;50.88;95039.00;5918827;24;20507;-91
2022/07/23 07:40:16;;;;;;;16.80;9.40;;;;;;;25.33;51.08;95043.63;5919458;24;20219;-91
2022/07/23 07:42:47;;;;;;;16.23;10.00;;;;;;;25.22;51.13;95018.31;5928531;24;20186;-92
2022/07/23 07:45:15;;;;;;;17.65;10.40;;;;;;;25.53;50.65;95038.97;5915401;24;20272;-91
2022/07/23 07:47:42;;;;;;;21.17;10.13;;;;;;;25.59;51.01;95037.75;5922608;24;20659;-92
2022/07/23 07:50:10;;;;;;;15.25;9.48;;;;;;;25.70;50.31;95047.06;5919379;24;20674;-92
2022/07/23 07:52:37;;;;;;;21.63;9.40;;;;;;;25.74;49.55;95038.16;5917635;24;20946;-92
2022/07/23 07:55:04;;;;;;;15.63;9.25;;;;;;;25.87;48.97;95033.84;5918373;24;20703;-93
2022/07/23 07:57:33;;;;;;;20.77;10.30;;;;;;;25.80;48.61;94997.00;5916376;24;20555;-92
2022/07/23 08:00:00;;;;;;;16.75;10.48;;;;;;;25.77;48.88;94986.19;5915068;24;20194;-92
2022/07/23 08:02:27;;;;;;;18.90;9.30;;;;;;;26.16;48.34;95036.09;5921659;24;20256;-92
2022/07/23 08:04:57;;;;;;;15.77;9.77;;;;;;;26.26;47.80;95038.50;5921868;24;20216;-92
2022/07/23 08:07:24;;;;;;;21.67;10.07;;;;;;;26.24;47.72;95008.69;5942759;24;20220;-91
2022/07/23 08:09:51;;;;;;;18.48;10.10;;;;;;;26.43;48.38;95023.38;5929019;24;20621;-91
2022/07/23 08:12:18;;;;;;;22.50;9.75;;;;;;;26.45;47.87;95017.72;5923089;24;20572;-90
2022/07/23 08:14:46;;;;;;;20.95;9.52;;;;;;;26.33;47.44;94983.63;5915992;24;20300;-92
2022/07/23 08:17:13;;;;;;;20.45;9.55;;;;;;;26.71;46.98;95031.91;5925265;24;20192;-91
2022/07/23 08:19:40;;;;;;;22.52;10.40;;;;;;;26.70;46.91;95014.34;5921047;24;20190;-91
2022/07/23 08:22:07;;;;;;;19.13;9.77;;;;;;;26.55;46.48;94982.78;5922772;24;20750;-91
2022/07/23 08:24:34;;;;;;;18.65;9.50;;;;;;;26.97;45.38;95026.66;5912372;24;20660;-92
2022/07/23 08:27:01;;;;;;;20.42;9.55;;;;;;;27.01;45.46;95023.06;5920191;24;20687;-91
2022/07/23 08:29:28;;;;;;;12.43;8.82;;;;;;;27.08;45.49;95025.28;5911332;24;20690;-90
2022/07/23 08:31:56;;;;;;;20.92;9.07;;;;;;;27.07;45.77;95015.69;5926258;24;20758;-91
2022/07/23 08:34:23;;;;;;;9.27;5.85;;;;;;;27.01;48.61;94983.03;5907046;24;20225;-91
2022/07/23 08:36:50;;;;;;;19.63;9.68;;;;;;;27.19;46.10;95009.72;5934378;24;20198;-92
2022/07/23 08:39:17;;;;;;;12.68;7.90;;;;;;;27.21;46.40;94999.53;5934510;24;20249;-91
2022/07/23 08:41:44;;;;;;;15.70;7.55;;;;;;;27.47;47.03;95017.16;5920995;24;20216;-87
2022/07/23 08:44:12;;;;;;;14.02;8.10;;;;;;;27.23;47.65;94963.41;5930197;24;20204;-91
2022/07/23 08:46:41;;;;;;;14.65;7.18;;;;;;;27.52;47.60;94992.97;5911320;24;20664;-90
2022/07/23 08:49:09;;;;;;;10.38;6.90;;;;;;;27.59;47.48;94993.25;5928822;24;20199;-93
2022/07/23 08:51:36;;;;;;;25.83;9.25;;;;;;;27.76;45.64;95013.06;5127216;23;20696;-76
2022/07/23 08:54:03;;;;;;;18.38;8.95;;;;;;;27.92;44.09;95016.78;4954016;28;20328;-75
2022/07/23 08:56:30;;;;;;;18.88;8.10;;;;;;;28.02;46.37;95001.19;4955349;28;20649;-80
2022/07/23 08:58:58;;;;;;;17.27;7.30;;;;;;;28.11;46.00;95001.19;4949604;28;20201;-77
2022/07/23 09:01:27;;;;;;;10.93;7.30;;;;;;;28.11;45.95;94996.63;4952338;28;20193;-80
2022/07/23 09:03:54;;;;;;;14.45;8.50;;;;;;;28.27;43.76;95004.13;4949750;28;20222;-79
2022/07/23 09:06:27;;;;;;;13.13;8.20;;;;;;;28.63;41.23;95007.09;4947737;28;20204;-81
2022/07/23 09:08:57;;;;;;;17.52;8.88;;;;;;;28.92;41.31;95001.00;4954359;28;20212;-78
2022/07/23 09:11:25;;;;;;;12.50;8.25;;;;;;;29.12;40.06;95002.94;4952893;28;20722;-77
2022/07/23 09:13:58;;;;;;;14.57;8.20;;;;;;;29.30;39.78;95007.06;4952623;28;20244;-79
2022/07/23 09:16:28;;;;;;;16.60;8.50;;;;;;;29.44;40.00;95004.13;4957033;28;20551;-84
2022/07/23 09:18:56;;;;;;;14.35;7.93;;;;;;;29.64;41.00;95004.06;4958851;28;20201;-86
2022/07/23 09:21:28;;;;;;;14.50;8.38;;;;;;;29.78;39.21;95003.81;4956190;28;20691;-84
2022/07/23 09:24:00;;;;;;;11.90;7.47;;;;;;;30.00;38.72;95002.66;4957783;28;20654;-84
2022/07/23 09:26:33;;;;;;;14.50;7.45;;;;;;;30.18;38.31;95015.56;4957460;28;20682;-82
2022/07/23 09:29:08;;;;;;;16.20;8.25;;;;;;;30.29;38.17;94999.81;4954318;28;20644;-83
2022/07/23 09:31:50;;;;;;;14.15;8.05;;;;;;;30.51;37.66;95006.66;4953518;28;20201;-83
2022/07/23 09:34:20;;;;;;;14.60;7.80;;;;;;;30.61;37.32;95008.91;4957112;28;20224;-81
2022/07/23 09:36:49;;;;;;;14.45;7.68;;;;;;;30.75;36.61;95009.38;4950808;28;20599;-80
2022/07/23 09:39:23;;;;;;;16.20;7.57;;;;;;;30.83;35.23;95001.19;4951171;28;20206;-80
2022/07/23 09:41:49;;;;;;;13.40;7.70;;;;;;;30.99;35.10;95000.53;4950155;28;20200;-81
2022/07/23 09:44:18;;;;;;;18.50;8.50;;;;;;;31.02;34.48;94978.38;4946344;28;20190;-81
2022/07/23 09:46:46;;;;;;;15.75;8.25;;;;;;;31.17;34.14;94991.88;4956554;28;20201;-86
2022/07/23 09:49:16;;;;;;;17.38;7.25;;;;;;;31.27;35.16;94993.31;4952802;28;20201;-82
2022/07/23 09:51:53;;;;;;;18.50;8.43;;;;;;;31.40;35.44;94981.41;4951375;28;20236;-85
2022/07/23 09:54:34;;;;;;;22.05;9.02;;;;;;;31.55;35.45;94991.44;4955905;28;20296;-81
2022/07/23 09:57:14;;;;;;;18.13;7.70;;;;;;;31.78;34.22;94986.28;4956587;28;20197;-79
2022/07/23 09:59:42;;;;;;;13.00;7.30;;;;;;;31.93;33.30;94978.28;4951481;28;20433;-81
2022/07/23 10:02:14;;;;;;;14.13;8.65;;;;;;;32.05;33.59;94985.53;4952854;28;20216;-81
2022/07/23 10:04:41;;;;;;;22.73;17.20;;;;;;;32.13;33.00;94976.50;4958418;28;20205;-81
2022/07/23 10:07:11;;;;;;;18.73;12.65;;;;;;;32.36;32.57;94973.97;4950244;28;20225;-78
2022/07/23 10:09:39;;;;;;;15.50;9.77;;;;;;;32.49;33.48;94973.56;4951499;28;20225;-76
2022/07/23 10:12:27;;;;;;;16.42;7.22;;;;;;;32.70;31.30;94980.59;4949850;28;20206;-76
2022/07/23 10:14:53;;;;;;;16.30;7.25;;;;;;;32.81;31.63;94970.84;4949411;28;20222;-83
2022/07/23 10:17:20;;;;;;;16.80;7.15;;;;;;;33.03;31.18;94970.16;4949671;28;20197;-86
2022/07/23 10:19:47;;;;;;;18.27;7.93;;;;;;;33.13;31.49;94964.28;4956284;28;20197;-81
2022/07/23 10:22:22;;;;;;;14.13;7.43;;;;;;;33.27;30.90;94969.97;4954071;28;20656;-81
2022/07/23 10:25:04;;;;;;;15.82;6.93;;;;;;;33.36;30.66;94964.34;4951606;28;20233;-82
2022/07/23 10:27:48;;;;;;;12.23;6.75;;;;;;;33.53;29.38;94974.72;4953538;28;20212;-82
2022/07/23 10:30:24;;;;;;;11.98;7.00;;;;;;;33.71;30.40;94969.69;4958454;28;20189;-82
2022/07/23 10:33:04;;;;;;;13.77;6.88;;;;;;;33.77;28.55;94963.63;4950881;28;20196;-75
2022/07/23 10:35:39;;;;;;;17.00;7.07;;;;;;;33.70;29.76;94952.72;4950808;28;20225;-76
2022/07/23 10:38:15;;;;;;;17.70;7.65;;;;;;;33.78;28.94;94961.72;4951742;28;20676;-76
2022/07/23 10:40:56;;;;;;;16.75;7.10;;;;;;;33.95;28.13;94962.03;4956009;28;20297;-83
2022/07/23 10:43:23;;;;;;;19.73;7.07;;;;;;;34.00;26.91;94953.66;4961940;28;20734;-83
2022/07/23 10:45:50;;;;;;;16.95;7.07;;;;;;;34.12;27.05;94958.91;4960631;28;20209;-85
2022/07/23 10:48:26;;;;;;;12.55;6.70;;;;;;;34.36;26.50;94957.75;4958654;28;20231;-83
2022/07/23 10:51:12;;;;;;;14.38;5.60;;;;;;;34.53;24.63;94949.16;4955503;28;20260;-84
2022/07/23 10:53:58;;;;;;;16.65;6.32;;;;;;;34.68;25.47;94955.59;4949565;29;20320;-83
2022/07/23 10:57:05;;;;;;;13.60;6.18;;;;;;;34.88;25.04;94943.53;4956412;28;20201;-86
2022/07/23 10:59:32;;;;;;;14.38;5.90;;;;;;;35.21;24.42;94945.53;4952060;28;20201;-84
2022/07/23 11:02:25;;;;;;;12.93;5.82;;;;;;;35.40;24.67;94939.97;4951652;29;20201;-87
2022/07/23 11:04:53;;;;;;;13.55;5.72;;;;;;;35.49;23.02;94935.06;4952598;28;20280;-87
2022/07/23 11:07:20;;;;;;;14.88;5.63;;;;;;;35.54;23.30;94940.13;4950647;28;20595;-86
2022/07/23 11:09:49;;;;;;;14.25;6.35;;;;;;;35.73;21.53;94941.94;4951243;28;20209;-88
2022/07/23 11:12:37;;;;;;;16.95;6.00;;;;;;;36.03;21.18;94944.53;4951086;28;20205;-84
2022/07/23 11:15:06;;;;;;;22.00;5.65;;;;;;;36.01;19.33;94931.38;4950360;29;20225;-83
2022/07/23 11:17:35;;;;;;;20.75;5.75;;;;;;;36.02;19.04;94935.63;4955163;28;20202;-84
2022/07/23 11:20:18;;;;;;;15.20;5.60;;;;;;;36.10;20.50;94925.69;4956026;28;20236;-84
2022/07/23 11:22:52;;;;;;;17.02;5.40;;;;;;;36.37;20.06;94922.41;4952010;28;20197;-83
2022/07/23 11:25:35;;;;;;;9.88;5.13;;;;;;;36.45;19.78;94917.06;4950205;28;20256;-82
2022/07/23 11:28:25;;;;;;;18.52;6.30;;;;;;;36.56;20.67;94916.00;4962155;28;20188;-81
2022/07/23 11:30:54;;;;;;;16.15;6.20;;;;;;;36.75;18.22;94923.88;4964230;28;20216;-87
2022/07/23 11:33:22;;;;;;;19.10;6.13;;;;;;;36.65;17.90;94921.88;4963057;28;20197;-86